Time;durP1;ratioP1;P1;durP2;ratioP2;P2;SDS_P1;SDS_P2;PMS_P1;PMS_P2;Temp;Humidity;BMP_temperature;BMP_pressure;BME280_temperature;BME280_humidity;BME280_pressure;Samples;Min_cycle;Max_cycle;Signal;HPM_P1;HPM_P2
2021/11/09 05:56:04;;;;;;;;;61.75;50.00;;;;;5.71;69.40;102281.81;1471947;23;45710;-98
2021/11/09 06:29:41;;;;;;;;;64.00;48.50;;;;;5.46;69.95;102297.84;5969063;23;47108;-96
2021/11/09 07:26:46;;;;;;;;;58.00;47.50;;;;;5.84;69.29;102341.19;5492529;23;45821;-85
2021/11/09 07:29:11;;;;;;;;;54.25;45.00;;;;;5.88;69.35;102343.28;4943940;28;66860;-84
2021/11/09 07:31:36;;;;;;;;;59.50;48.75;;;;;5.88;69.69;102339.75;4959642;28;74637;-85
2021/11/09 07:34:02;;;;;;;;;60.75;47.75;;;;;5.92;69.80;102340.19;4971679;28;49879;-85
2021/11/09 07:36:28;;;;;;;;;61.00;46.25;;;;;6.00;70.12;102346.09;4980869;28;45985;-85
2021/11/09 07:38:53;;;;;;;;;59.50;45.75;;;;;6.08;70.13;102352.00;4959424;28;45396;-84
2021/11/09 07:41:19;;;;;;;;;67.00;47.75;;;;;6.19;69.87;102362.47;4971810;28;46384;-84
2021/11/09 07:43:44;;;;;;;;;52.00;45.25;;;;;6.23;70.04;102357.69;4971966;28;51020;-84
2021/11/09 07:46:09;;;;;;;;;59.00;49.25;;;;;6.23;69.81;102352.47;4983296;28;68447;-83
2021/11/09 07:48:35;;;;;;;;;61.50;49.00;;;;;6.27;69.80;102366.69;4976562;28;45563;-84
2021/11/09 07:51:00;;;;;;;;;62.50;47.50;;;;;6.32;69.89;102369.72;4988787;28;45473;-84
2021/11/09 07:53:30;;;;;;;;;65.75;53.25;;;;;6.35;69.92;102372.59;4963105;28;45433;-84
2021/11/09 07:56:18;;;;;;;;;64.00;50.75;;;;;6.41;69.82;102377.44;4981902;28;45399;-84
2021/11/09 08:01:37;;;;;;;;;65.50;52.50;;;;;6.47;69.69;102381.50;4987843;28;45494;-84
2021/11/09 08:04:12;;;;;;;;;66.25;49.75;;;;;6.49;70.26;102381.66;4993890;28;45339;-84
2021/11/09 08:07:01;;;;;;;;;63.00;52.25;;;;;6.58;70.12;102385.06;4969789;28;45510;-84
2021/11/09 08:09:28;;;;;;;;;64.25;50.25;;;;;6.60;70.12;102382.59;4987551;28;45409;-84
2021/11/09 08:11:54;;;;;;;;;58.50;47.75;;;;;6.61;70.55;102374.00;4985883;28;45652;-83
2021/11/09 08:14:19;;;;;;;;;68.00;51.50;;;;;6.70;70.46;102376.50;4975745;28;45348;-83
2021/11/09 08:16:47;;;;;;;;;61.75;51.75;;;;;6.80;70.04;102388.66;4974059;28;45656;-83
2021/11/09 08:19:12;;;;;;;;;66.00;53.50;;;;;6.85;70.33;102387.38;4967848;28;45077;-83
2021/11/09 08:21:39;;;;;;;;;68.50;54.00;;;;;6.88;70.02;102385.00;4963595;28;47315;-84
2021/11/09 08:24:04;;;;;;;;;63.75;52.00;;;;;6.98;70.45;102388.44;4974640;28;45496;-84
2021/11/09 08:26:30;;;;;;;;;61.75;49.50;;;;;7.04;70.22;102391.56;4970892;28;45515;-83
2021/11/09 08:28:57;;;;;;;;;64.25;53.25;;;;;7.06;70.00;102387.38;4966643;28;45495;-86
2021/11/09 08:31:25;;;;;;;;;66.00;50.50;;;;;7.10;70.55;102380.75;4967587;28;46130;-86
2021/11/09 08:33:51;;;;;;;;;65.75;52.50;;;;;7.14;70.53;102375.91;4960174;28;45782;-82
2021/11/09 08:36:22;;;;;;;;;68.75;54.50;;;;;7.25;70.30;102370.69;4979533;28;44832;-84
2021/11/09 08:38:48;;;;;;;;;68.50;53.50;;;;;7.33;69.68;102385.31;4960123;28;45355;-84
2021/11/09 08:41:14;;;;;;;;;69.75;54.00;;;;;7.43;70.14;102391.31;4980009;28;45511;-83
2021/11/09 08:43:42;;;;;;;;;63.00;51.75;;;;;7.52;69.64;102396.44;4973025;28;45631;-83
2021/11/09 08:46:19;;;;;;;;;65.50;51.50;;;;;7.60;69.93;102392.78;4978905;28;45383;-84
2021/11/09 08:48:46;;;;;;;;;62.00;51.50;;;;;7.65;69.44;102388.84;4975596;28;45366;-83
2021/11/09 08:51:12;;;;;;;;;70.25;55.50;;;;;7.68;69.58;102377.75;4957229;28;45667;-84
2021/11/09 08:53:51;;;;;;;;;61.50;51.75;;;;;7.80;69.73;102389.22;4964660;28;45624;-86
2021/11/09 08:56:50;;;;;;;;;69.50;53.50;;;;;7.88;69.57;102387.25;4941568;28;45243;-86
2021/11/09 09:04:58;;;;;;;;;68.75;54.25;;;;;8.20;69.39;102394.97;4913592;28;45579;-84
2021/11/09 09:07:28;;;;;;;;;69.50;55.25;;;;;8.21;69.20;102389.88;4911349;28;45373;-82
2021/11/09 09:09:54;;;;;;;;;70.75;56.75;;;;;8.29;68.88;102381.75;4909752;28;47655;-84
2021/11/09 09:12:20;;;;;;;;;67.75;54.50;;;;;8.35;68.90;102390.09;4912368;28;45703;-84
2021/11/09 09:14:46;;;;;;;;;74.25;54.75;;;;;8.41;69.23;102395.81;4912839;28;45391;-84
2021/11/09 09:17:11;;;;;;;;;69.75;53.50;;;;;8.46;68.97;102388.34;4919486;28;45376;-84
2021/11/09 09:20:21;;;;;;;;;67.25;56.00;;;;;8.52;68.32;102393.16;4905466;28;45296;-83
2021/11/09 09:22:30;;;;;;;;;62.25;50.75;;;;;8.54;69.02;102383.72;4917417;28;46558;-82
2021/11/09 09:33:04;;;;;;;;;67.75;54.75;;;;;8.78;68.62;102381.28;4866805;29;45483;-84
2021/11/09 09:57:22;;;;;;;;;68.00;53.00;;;;;9.35;68.20;102374.31;4849528;29;46063;-89
2021/11/09 09:59:47;;;;;;;;;62.00;50.50;;;;;9.45;68.20;102382.88;4834696;29;45521;-89
2021/11/09 10:02:25;;;;;;;;;67.50;53.00;;;;;9.49;67.87;102375.34;4829809;29;45849;-87
2021/11/09 10:04:57;;;;;;;;;69.50;53.50;;;;;9.55;67.74;102374.91;4853262;29;45677;-86
2021/11/09 10:07:39;;;;;;;;;70.50;53.75;;;;;9.58;67.86;102374.25;4868455;29;45413;-87
2021/11/09 10:10:10;;;;;;;;;65.75;54.25;;;;;9.68;67.46;102374.13;4864942;28;47614;-86
2021/11/09 10:12:36;;;;;;;;;63.50;52.25;;;;;9.69;67.37;102370.69;4894122;28;45399;-88
2021/11/09 10:15:12;;;;;;;;;67.25;52.75;;;;;9.75;67.50;102378.13;4860355;29;46523;-89
2021/11/09 10:17:39;;;;;;;;;68.75;54.25;;;;;9.77;67.92;102366.03;4893217;28;45437;-87
2021/11/09 10:20:16;;;;;;;;;72.00;55.50;;;;;9.87;67.65;102367.63;4864877;28;45643;-86
2021/11/09 10:22:41;;;;;;;;;68.00;55.50;;;;;9.96;67.53;102372.66;4877214;29;45448;-87
2021/11/09 10:25:09;;;;;;;;;71.00;54.25;;;;;9.99;67.33;102361.47;4878654;28;48044;-87
2021/11/09 10:27:35;;;;;;;;;68.50;55.00;;;;;10.03;67.21;102358.28;4878354;29;45503;-86
2021/11/09 10:30:16;;;;;;;;;68.75;53.75;;;;;10.11;66.98;102362.38;4945630;28;45627;-87
2021/11/09 10:32:41;;;;;;;;;69.00;53.25;;;;;10.12;66.78;102351.09;4965303;28;46253;-86
2021/11/09 10:35:08;;;;;;;;;64.75;53.25;;;;;10.21;66.79;102355.16;4939596;28;68972;-88
2021/11/09 10:37:37;;;;;;;;;60.75;50.00;;;;;10.27;66.71;102347.75;4942053;28;45450;-87
2021/11/09 10:40:05;;;;;;;;;65.50;51.50;;;;;10.31;66.79;102346.28;4951330;28;45339;-86
2021/11/09 10:42:32;;;;;;;;;68.25;51.75;;;;;10.39;66.50;102355.59;4964565;28;45382;-87
2021/11/09 10:44:59;;;;;;;;;68.25;53.00;;;;;10.44;66.27;102351.59;4942771;28;47544;-87
2021/11/09 10:47:27;;;;;;;;;71.00;55.00;;;;;10.49;66.52;102350.22;4950441;28;45585;-87
2021/11/09 10:49:57;;;;;;;;;66.00;53.00;;;;;10.57;66.24;102352.50;4956512;28;45292;-88
2021/11/09 10:52:28;;;;;;;;;68.50;54.75;;;;;10.59;66.32;102345.66;4965721;28;45440;-88
2021/11/09 10:55:06;;;;;;;;;68.25;53.25;;;;;10.64;65.61;102354.78;4943642;28;46364;-88
2021/11/09 11:00:34;;;;;;;;;63.25;50.75;;;;;10.69;65.28;102335.03;4967976;28;45548;-89
2021/11/09 11:03:29;;;;;;;;;62.25;51.00;;;;;10.76;65.39;102344.22;4961060;28;45491;-89
2021/11/09 11:06:16;;;;;;;;;58.50;49.00;;;;;10.82;64.99;102346.38;4941365;28;47121;-88
2021/11/09 11:08:41;;;;;;;;;57.25;46.75;;;;;10.84;65.08;102327.31;4958993;28;45339;-88
2021/11/09 11:11:23;;;;;;;;;59.25;47.00;;;;;10.88;65.20;102325.78;4951194;28;45525;-88
2021/11/09 11:14:16;;;;;;;;;62.00;49.25;;;;;10.93;65.13;102319.13;4956139;28;45505;-89
2021/11/09 11:16:44;;;;;;;;;61.25;48.50;;;;;11.01;64.96;102313.50;4961362;28;46192;-87
2021/11/09 11:19:11;;;;;;;;;59.50;46.50;;;;;11.01;64.62;102306.53;4971028;28;45326;-88
2021/11/09 11:21:37;;;;;;;;;60.50;47.75;;;;;11.06;64.54;102304.22;4934326;28;45477;-87
2021/11/09 11:24:03;;;;;;;;;54.50;45.75;;;;;11.04;63.66;102303.19;4935148;28;45578;-88
2021/11/09 11:26:30;;;;;;;;;56.25;45.00;;;;;11.07;63.89;102300.78;4956050;28;46166;-87
2021/11/09 11:28:56;;;;;;;;;53.75;42.75;;;;;11.12;64.18;102306.34;4952867;28;45595;-87
2021/11/09 11:31:22;;;;;;;;;58.00;47.00;;;;;11.13;63.23;102302.94;4938817;28;45376;-87
2021/11/09 11:33:48;;;;;;;;;53.25;42.50;;;;;11.18;63.74;102299.78;4942508;28;46054;-87
2021/11/09 11:36:14;;;;;;;;;51.75;41.75;;;;;11.22;64.11;102302.63;4955794;28;46272;-86
2021/11/09 11:38:41;;;;;;;;;45.00;40.75;;;;;11.26;62.65;102299.41;4959705;28;45462;-89
2021/11/09 11:41:07;;;;;;;;;53.50;41.75;;;;;11.25;63.20;102288.00;4940398;28;45460;-88
2021/11/09 11:43:41;;;;;;;;;47.25;40.25;;;;;11.35;62.68;102297.41;4943864;28;45732;-86
2021/11/09 11:46:10;;;;;;;;;47.75;41.00;;;;;11.36;63.37;102283.47;4966672;28;45475;-87
2021/11/09 11:49:13;;;;;;;;;45.75;39.25;;;;;11.45;62.95;102290.13;4955767;28;45462;-87
2021/11/09 11:51:44;;;;;;;;;48.00;40.25;;;;;11.46;61.79;102279.72;4971032;28;45465;-88
2021/11/09 11:54:10;;;;;;;;;48.75;39.25;;;;;11.48;62.72;102277.19;4970711;28;47427;-87
2021/11/09 11:56:43;;;;;;;;;55.00;42.75;;;;;11.53;62.44;102270.50;4938313;28;45368;-88
2021/11/09 11:59:23;;;;;;;;;50.75;40.50;;;;;11.56;61.87;102273.34;4968425;28;45452;-87
2021/11/09 12:01:49;;;;;;;;;49.25;39.50;;;;;11.56;62.05;102257.56;4970516;28;45511;-87
2021/11/09 12:04:40;;;;;;;;;52.25;41.00;;;;;11.65;61.40;102267.75;4947583;28;45958;-87
2021/11/09 12:07:17;;;;;;;;;42.25;39.25;;;;;11.66;62.14;102255.53;4951402;28;46331;-89
2021/11/09 12:09:45;;;;;;;;;44.50;37.25;;;;;11.69;62.13;102253.09;4953745;28;45524;-88
2021/11/09 12:12:20;;;;;;;;;48.00;37.25;;;;;11.74;61.81;102262.22;4939838;28;45642;-88
2021/11/09 12:14:46;;;;;;;;;32.25;27.00;;;;;11.73;61.59;102255.13;4976240;28;45492;-87
2021/11/09 12:17:13;;;;;;;;;29.50;26.75;;;;;11.76;60.80;102246.50;4948851;28;45545;-89
2021/11/09 12:19:50;;;;;;;;;34.25;33.75;;;;;11.78;61.40;102247.50;4953764;28;45364;-87
2021/11/09 12:22:18;;;;;;;;;36.50;32.00;;;;;11.80;61.61;102238.03;4946101;28;45503;-87
2021/11/09 12:24:55;;;;;;;;;31.75;31.00;;;;;11.86;61.30;102235.78;4940326;28;45580;-86
2021/11/09 12:27:21;;;;;;;;;45.50;35.75;;;;;11.85;61.23;102224.34;4972610;28;46328;-85
2021/11/09 12:29:51;;;;;;;;;36.50;30.75;;;;;11.88;61.59;102230.63;4942211;28;45424;-86
2021/11/09 12:32:31;;;;;;;;;42.00;33.75;;;;;11.92;60.93;102227.38;4968548;28;45362;-85
2021/11/09 12:35:02;;;;;;;;;36.25;32.75;;;;;11.93;60.86;102224.81;4970494;28;45605;-86
2021/11/09 12:37:28;;;;;;;;;29.00;27.50;;;;;11.95;61.21;102217.03;4973231;28;45441;-85
2021/11/09 12:40:26;;;;;;;;;35.00;27.75;;;;;12.00;60.63;102222.59;4951228;28;45394;-86
2021/11/09 12:43:22;;;;;;;;;26.25;22.50;;;;;11.99;60.39;102220.75;4959469;28;45346;-85
2021/11/09 12:46:03;;;;;;;;;24.00;21.00;;;;;11.98;60.13;102218.97;4962593;28;45534;-84
2021/11/09 12:48:32;;;;;;;;;24.25;21.00;;;;;11.96;60.32;102217.13;4966112;28;46045;-86
2021/11/09 12:51:01;;;;;;;;;29.00;21.75;;;;;11.98;59.86;102221.59;4954672;28;45463;-89
2021/11/09 12:53:27;;;;;;;;;28.75;22.50;;;;;11.97;60.15;102215.41;4954638;28;45405;-85
2021/11/09 12:56:05;;;;;;;;;19.75;19.00;;;;;11.97;60.36;102215.41;4942168;28;45522;-85
2021/11/09 12:58:34;;;;;;;;;21.00;18.50;;;;;12.00;59.62;102219.97;4960216;28;46291;-85
2021/11/09 13:01:15;;;;;;;;;16.50;16.50;;;;;11.99;59.72;102212.88;4965888;28;45350;-85
2021/11/09 13:03:55;;;;;;;;;18.75;16.50;;;;;12.01;59.44;102216.53;4958461;28;45421;-85
2021/11/09 13:07:08;;;;;;;;;18.00;16.67;;;;;12.01;59.01;102211.28;4925043;28;45383;-85
2021/11/09 13:09:34;;;;;;;;;17.33;14.33;;;;;12.00;58.97;102214.69;4961517;28;46492;-85
2021/11/09 13:12:00;;;;;;;;;19.67;15.33;;;;;12.01;58.86;102219.16;4943655;28;45600;-84
2021/11/09 13:14:44;;;;;;;;;15.00;12.33;;;;;11.98;59.03;102208.44;4952065;28;45450;-85
2021/11/09 13:17:23;;;;;;;;;13.00;12.67;;;;;12.00;58.46;102209.44;4968818;28;45525;-84
2021/11/09 13:20:00;;;;;;;;;14.00;14.00;;;;;11.94;58.74;102199.44;4953140;28;47562;-85
2021/11/09 13:22:29;;;;;;;;;21.33;17.33;;;;;11.98;58.40;102206.72;4965741;28;45449;-85
2021/11/09 13:25:08;;;;;;;;;15.00;15.00;;;;;11.96;58.41;102197.78;4949700;28;45432;-84
2021/11/09 13:27:47;;;;;;;;;20.33;16.33;;;;;11.96;58.84;102200.44;4962879;28;50389;-84
2021/11/09 13:30:18;;;;;;;;;21.67;15.00;;;;;11.96;59.07;102198.72;4947782;28;46028;-85
2021/11/09 13:32:47;;;;;;;;;20.33;15.33;;;;;11.97;58.63;102197.00;4969825;28;45837;-84
2021/11/09 13:35:26;;;;;;;;;15.33;12.00;;;;;11.99;58.31;102195.38;4949481;28;45545;-85
2021/11/09 13:38:08;;;;;;;;;14.33;14.00;;;;;11.99;57.97;102199.72;4966356;28;45793;-85
2021/11/09 13:40:33;;;;;;;;;11.67;11.67;;;;;11.97;57.61;102199.63;4959561;28;46390;-85
2021/11/09 13:43:00;;;;;;;;;14.00;13.33;;;;;11.94;57.75;102191.53;4963934;28;45342;-85
2021/11/09 13:45:26;;;;;;;;;15.67;13.33;;;;;11.95;57.71;102196.91;4970769;28;45540;-85
2021/11/09 13:47:51;;;;;;;;;16.67;15.67;;;;;11.98;57.89;102193.56;4976629;28;45429;-85
2021/11/09 13:50:17;;;;;;;;;17.33;14.33;;;;;11.95;58.06;102177.56;4966246;28;64574;-85
2021/11/09 13:52:47;;;;;;;;;17.33;14.33;;;;;11.99;57.70;102186.56;4962168;28;73244;-85
2021/11/09 13:55:13;;;;;;;;;12.00;11.00;;;;;11.98;58.21;102185.66;4943161;28;45469;-85
2021/11/09 13:57:39;;;;;;;;;17.67;13.67;;;;;11.96;57.46;102168.84;4971342;28;45298;-84
2021/11/09 14:00:33;;;;;;;;;11.00;11.00;;;;;11.99;58.18;102173.41;4955909;28;45567;-84
2021/11/09 14:03:25;;;;;;;;;19.00;14.00;;;;;12.00;57.49;102168.25;4971847;28;45409;-84
2021/11/09 14:19:02;;;;;;;;;12.67;9.67;;;;;11.92;57.22;102154.59;4956766;28;45402;-84
2021/11/09 14:21:36;;;;;;;;;12.67;11.00;;;;;11.89;56.91;102149.16;4959972;28;46296;-83
2021/11/09 14:24:16;;;;;;;;;12.67;11.33;;;;;11.88;57.04;102149.06;4980536;28;45572;-85
2021/11/09 14:26:43;;;;;;;;;10.33;10.33;;;;;11.88;57.59;102149.94;4982124;28;45442;-85
2021/11/09 14:29:23;;;;;;;;;10.33;8.67;;;;;11.89;56.93;102145.59;4964635;28;45232;-89
2021/11/09 14:32:14;;;;;;;;;10.67;10.00;;;;;11.89;56.84;102153.50;4956616;28;45537;-86
2021/11/09 14:34:40;;;;;;;;;12.00;10.00;;;;;11.81;56.73;102147.75;4961251;28;45513;-85
2021/11/09 14:37:10;;;;;;;;;14.67;10.67;;;;;11.74;56.06;102135.94;4970591;28;45659;-86
2021/11/09 14:39:41;;;;;;;;;14.00;10.33;;;;;11.74;55.74;102146.47;4982668;28;45976;-87
2021/11/09 14:42:15;;;;;;;;;11.33;9.33;;;;;11.73;56.03;102152.53;4981758;28;46417;-87
2021/11/09 14:45:25;;;;;;;;;11.00;11.00;;;;;11.72;56.40;102149.00;4960315;28;45497;-87
2021/11/09 14:48:14;;;;;;;;;15.00;11.00;;;;;11.68;56.20;102143.44;4960846;28;45659;-87
2021/11/09 14:50:53;;;;;;;;;9.67;9.67;;;;;11.66;56.79;102137.16;4954007;28;45397;-86
2021/11/09 14:53:26;;;;;;;;;10.00;9.33;;;;;11.69;56.40;102130.41;4974387;28;45393;-88
2021/11/09 14:56:04;;;;;;;;;13.67;9.67;;;;;11.74;57.26;102138.56;4946009;28;45467;-85
2021/11/09 14:58:36;;;;;;;;;14.00;9.33;;;;;11.70;56.04;102136.56;4981235;28;45406;-84
2021/11/09 15:01:29;;;;;;;;;11.33;11.33;;;;;11.68;56.39;102140.81;4971847;28;45694;-85
2021/11/09 15:04:09;;;;;;;;;10.33;10.00;;;;;11.65;56.72;102146.78;4956236;28;47052;-85
2021/11/09 15:10:07;;;;;;;;;10.00;8.33;;;;;11.58;55.79;102134.06;4957497;28;45461;-83
2021/11/09 15:26:30;;;;;;;;;9.33;8.00;;;;;11.43;55.97;102123.47;4908497;28;45553;-86
2021/11/09 15:28:59;;;;;;;;;14.33;11.67;;;;;11.41;57.06;102131.28;4903861;28;45344;-84
2021/11/09 15:31:30;;;;;;;;;10.33;8.00;;;;;11.42;57.07;102124.25;4921659;28;45627;-82
2021/11/09 15:36:46;;;;;;;;;11.67;9.00;;;;;11.35;57.03;102123.88;4910163;28;46062;-82
2021/11/09 15:39:12;;;;;;;;;9.00;8.67;;;;;11.34;56.43;102123.81;4896066;28;45504;-81
2021/11/09 15:41:37;;;;;;;;;9.00;8.67;;;;;11.28;57.25;102105.91;4899583;28;45481;-83
2021/11/09 15:44:03;;;;;;;;;11.33;9.67;;;;;11.33;56.77;102125.50;4904888;28;45445;-84
2021/11/09 15:46:29;;;;;;;;;9.33;7.67;;;;;11.33;57.05;102122.88;4895337;28;46378;-84
2021/11/09 15:48:54;;;;;;;;;9.67;8.33;;;;;11.28;56.64;102119.06;4899574;28;45508;-83
2021/11/09 15:51:21;;;;;;;;;16.00;9.33;;;;;11.29;56.73;102118.22;4909335;28;48069;-84
2021/11/09 15:53:47;;;;;;;;;10.00;7.00;;;;;11.27;56.55;102120.75;4896061;28;45510;-83
2021/11/09 15:56:12;;;;;;;;;12.00;9.00;;;;;11.24;56.68;102117.94;4896766;28;51071;-84
2021/11/09 15:58:38;;;;;;;;;8.00;7.33;;;;;11.23;56.72;102112.59;4961773;28;52651;-84
2021/11/09 16:01:03;;;;;;;;;10.00;7.00;;;;;11.20;57.79;102113.28;4948863;28;45536;-83
2021/11/09 16:03:29;;;;;;;;;8.00;7.67;;;;;11.17;56.98;102106.13;4978617;28;45385;-83
2021/11/09 16:05:54;;;;;;;;;11.00;8.00;;;;;11.15;57.35;102106.84;4972543;28;45614;-84
2021/11/09 16:08:20;;;;;;;;;10.00;7.67;;;;;11.14;57.78;102108.53;4938629;28;60597;-83
2021/11/09 16:10:47;;;;;;;;;9.67;8.67;;;;;11.10;57.64;102100.38;4968647;28;45473;-83
2021/11/09 16:13:13;;;;;;;;;9.00;8.00;;;;;11.09;58.85;102107.34;4950704;28;45711;-83
2021/11/09 16:15:38;;;;;;;;;11.00;11.00;;;;;11.09;57.75;102106.41;4966175;28;72038;-83
2021/11/09 16:18:04;;;;;;;;;11.00;9.00;;;;;11.04;58.19;102103.50;4970626;28;60954;-83
2021/11/09 16:20:30;;;;;;;;;13.67;8.00;;;;;11.00;58.01;102098.84;4949946;28;45701;-83
2021/11/09 16:22:58;;;;;;;;;12.33;9.33;;;;;11.00;58.80;102115.53;4952015;28;45635;-84
2021/11/09 16:25:23;;;;;;;;;16.00;10.33;;;;;11.00;58.63;102115.53;4967026;28;45552;-84
2021/11/09 16:27:49;;;;;;;;;12.33;9.00;;;;;10.98;59.40;102117.13;4935196;28;45535;-84
2021/11/09 16:30:16;;;;;;;;;7.00;7.00;;;;;10.93;59.47;102116.84;4963486;28;45881;-84
2021/11/09 16:32:46;;;;;;;;;11.00;11.00;;;;;10.94;58.93;102121.28;4954212;28;46321;-84
2021/11/09 16:37:43;;;;;;;;;12.67;9.00;;;;;10.88;59.09;102130.47;4952853;28;45434;-84
2021/11/09 16:40:16;;;;;;;;;18.33;11.33;;;;;10.83;59.27;102130.16;4968809;28;45624;-83
2021/11/09 16:42:49;;;;;;;;;16.00;14.33;;;;;10.83;59.38;102131.09;4951967;28;45526;-82
2021/11/09 16:45:20;;;;;;;;;15.00;12.00;;;;;10.81;59.11;102132.69;4970136;28;46375;-84
2021/11/09 16:47:47;;;;;;;;;15.67;14.33;;;;;10.78;59.65;102134.19;4917806;28;45680;-83
2021/11/09 16:51:15;;;;;;;;;18.67;15.33;;;;;10.76;59.28;102131.47;4969550;28;45474;-84
2021/11/09 16:53:09;;;;;;;;;19.00;14.33;;;;;10.77;59.83;102135.03;4943491;28;45516;-83
2021/11/09 17:06:14;;;;;;;;;24.67;15.00;;;;;10.66;59.89;102153.59;4969578;28;45493;-83
2021/11/09 18:14:25;;;;;;;;;31.00;26.75;;;;;9.20;60.88;102181.88;4971220;28;45795;-83
2021/11/09 18:22:00;;;;;;;;;34.25;31.25;;;;;8.95;61.68;102194.03;4957120;28;46187;-83
2021/11/09 18:24:25;;;;;;;;;35.25;29.00;;;;;8.90;61.99;102184.91;4942976;28;66290;-84
2021/11/09 18:26:54;;;;;;;;;30.75;28.00;;;;;8.94;61.89;102185.25;4960885;28;45390;-84
2021/11/09 18:29:21;;;;;;;;;47.50;38.50;;;;;8.88;61.89;102179.56;4937794;28;45502;-84
2021/11/09 18:31:47;;;;;;;;;44.75;37.50;;;;;8.82;61.83;102180.00;4954956;28;45408;-84
2021/11/09 18:34:12;;;;;;;;;48.75;39.25;;;;;8.80;62.20;102189.47;4951967;28;45499;-86
2021/11/09 18:36:39;;;;;;;;;43.50;38.00;;;;;8.73;62.35;102189.78;4955453;28;45347;-83
2021/11/09 18:39:05;;;;;;;;;44.50;39.25;;;;;8.68;62.00;102193.75;4956442;28;45392;-84
2021/11/09 18:41:30;;;;;;;;;45.50;38.75;;;;;8.63;62.31;102193.41;4973425;28;46324;-85
2021/11/09 18:43:56;;;;;;;;;40.00;37.25;;;;;8.57;62.52;102193.81;4969962;28;71997;-85
2021/11/09 18:46:24;;;;;;;;;47.50;38.25;;;;;8.54;62.44;102196.19;4971323;28;45597;-84
2021/11/09 18:48:56;;;;;;;;;48.25;39.25;;;;;8.50;62.61;102200.25;4970888;28;45454;-85
2021/11/09 18:51:22;;;;;;;;;44.50;39.75;;;;;8.44;62.83;102196.25;4955012;28;48371;-85
2021/11/09 18:53:47;;;;;;;;;55.75;43.50;;;;;8.43;62.97;102202.28;4971501;28;45436;-84
2021/11/09 18:56:13;;;;;;;;;58.00;43.50;;;;;8.43;63.18;102202.28;4969451;28;64826;-83
2021/11/09 18:58:38;;;;;;;;;55.00;44.00;;;;;8.39;63.10;102195.91;4967476;28;45597;-83
2021/11/09 19:01:03;;;;;;;;;49.50;42.00;;;;;8.35;63.04;102201.72;4951252;28;46081;-84
2021/11/09 19:03:29;;;;;;;;;60.25;48.50;;;;;8.32;63.14;102196.22;4968690;28;69470;-83
2021/11/09 19:05:54;;;;;;;;;56.75;47.50;;;;;8.31;63.33;102210.09;4950758;28;45470;-84
2021/11/09 19:08:20;;;;;;;;;58.50;48.25;;;;;8.27;63.51;102216.81;4972422;28;45514;-84
2021/11/09 19:10:45;;;;;;;;;63.00;49.00;;;;;8.22;63.47;102211.19;4946116;28;45566;-84
2021/11/09 19:13:11;;;;;;;;;61.50;49.00;;;;;8.21;63.52;102204.16;4947093;28;68793;-85
2021/11/09 19:15:36;;;;;;;;;63.50;51.25;;;;;8.25;63.42;102210.50;4971596;28;45836;-84
2021/11/09 19:18:02;;;;;;;;;65.00;52.50;;;;;8.25;63.99;102216.66;4970704;28;62536;-84
2021/11/09 19:20:28;;;;;;;;;64.25;51.00;;;;;8.33;64.39;102213.72;4957247;28;46020;-84
2021/11/09 19:22:53;;;;;;;;;60.75;48.75;;;;;8.33;63.63;102209.41;4973889;28;45453;-84
2021/11/09 19:25:19;;;;;;;;;63.50;50.50;;;;;8.32;63.65;102204.09;4963788;28;45609;-84
2021/11/09 19:27:45;;;;;;;;;61.50;51.00;;;;;8.30;63.88;102203.06;4959452;28;47577;-84
2021/11/09 19:30:11;;;;;;;;;66.25;51.75;;;;;8.27;63.60;102201.13;4954954;28;45488;-84
2021/11/09 19:32:37;;;;;;;;;65.75;53.00;;;;;8.24;63.64;102208.72;4951684;28;45454;-84
2021/11/09 19:35:03;;;;;;;;;61.00;49.00;;;;;8.19;63.82;102205.75;4971131;28;45399;-84
2021/11/09 19:37:29;;;;;;;;;61.50;48.75;;;;;8.16;64.10;102202.88;4963942;28;45332;-84
2021/11/09 19:39:54;;;;;;;;;63.25;48.75;;;;;8.11;64.20;102201.59;4956142;28;45549;-85
2021/11/09 19:42:24;;;;;;;;;58.75;47.25;;;;;8.12;64.24;102203.41;4957440;28;45327;-85
2021/11/09 19:44:49;;;;;;;;;62.50;48.50;;;;;8.07;63.83;102197.81;4971322;28;45768;-85
2021/11/09 19:47:15;;;;;;;;;58.00;45.00;;;;;8.02;64.06;102197.44;4965088;28;45778;-84
2021/11/09 19:49:40;;;;;;;;;64.25;49.00;;;;;8.02;64.34;102204.38;4967219;28;47783;-84
2021/11/09 19:52:06;;;;;;;;;56.25;46.75;;;;;7.96;64.27;102201.28;4959362;28;62864;-85
2021/11/09 19:54:31;;;;;;;;;57.25;48.00;;;;;7.91;64.10;102206.16;4966804;28;45734;-85
2021/11/09 19:56:58;;;;;;;;;58.75;45.25;;;;;7.83;64.35;102206.44;4940727;28;45426;-84
2021/11/09 19:59:24;;;;;;;;;56.50;41.25;;;;;7.83;64.43;102216.00;4958003;28;45608;-84
2021/11/09 20:01:51;;;;;;;;;56.50;46.25;;;;;7.77;64.63;102213.81;4959818;28;45309;-84
2021/11/09 20:04:16;;;;;;;;;56.75;45.50;;;;;7.78;64.43;102214.72;4965289;28;45394;-85
2021/11/09 20:06:46;;;;;;;;;62.50;48.25;;;;;7.73;64.52;102219.56;4971016;28;45546;-95
2021/11/09 20:09:19;;;;;;;;;56.50;45.50;;;;;7.70;64.75;102203.66;4927863;28;48190;-95
2021/11/09 20:11:44;;;;;;;;;55.75;44.00;;;;;7.68;64.74;102207.84;4942520;28;45567;-94
2021/11/09 20:14:20;;;;;;;;;60.50;46.75;;;;;7.58;64.67;102191.41;4948263;28;45554;-95
2021/11/09 20:16:47;;;;;;;;;58.50;46.75;;;;;7.55;64.71;102198.09;4949336;28;45327;-95
2021/11/09 20:19:15;;;;;;;;;57.50;47.25;;;;;7.53;65.33;102197.03;4937946;28;46385;-95
2021/11/09 20:21:41;;;;;;;;;59.25;47.75;;;;;7.57;65.13;102188.66;4933049;28;45667;-95
2021/11/09 20:24:07;;;;;;;;;60.25;47.00;;;;;7.59;64.88;102189.69;4948379;28;45384;-96
2021/11/09 20:26:33;;;;;;;;;67.00;54.00;;;;;7.46;65.18;102175.66;4930338;28;45452;-95
2021/11/09 20:28:58;;;;;;;;;53.50;44.75;;;;;7.55;65.08;102198.09;4958087;28;48790;-96
2021/11/09 20:31:24;;;;;;;;;59.00;47.50;;;;;7.48;65.31;102192.34;4926005;28;45448;-95
2021/11/09 20:33:49;;;;;;;;;60.25;47.25;;;;;7.45;65.03;102170.28;4928507;28;45523;-95
2021/11/09 20:36:15;;;;;;;;;60.50;48.50;;;;;7.53;65.20;102194.41;4931968;28;45334;-96
2021/11/09 20:38:41;;;;;;;;;59.25;48.75;;;;;7.45;65.42;102192.09;4957863;28;47431;-95
2021/11/09 20:41:08;;;;;;;;;64.75;52.25;;;;;7.55;65.12;102200.69;4931136;28;49928;-94
2021/11/09 20:43:34;;;;;;;;;65.50;51.25;;;;;7.45;65.60;102186.88;4926288;28;45432;-94
2021/11/09 20:46:00;;;;;;;;;66.00;51.25;;;;;7.55;65.27;102200.69;4928065;28;45499;-95
2021/11/09 20:48:25;;;;;;;;;61.50;50.00;;;;;7.36;65.33;102189.66;4930819;28;56684;-95
2021/11/09 20:50:51;;;;;;;;;70.50;54.50;;;;;7.25;65.35;102187.84;4967161;28;45715;-95
2021/11/09 20:53:16;;;;;;;;;69.00;53.25;;;;;7.21;65.49;102184.09;4953167;28;45474;-95
2021/11/09 20:55:42;;;;;;;;;67.75;53.50;;;;;7.25;65.55;102198.28;4932924;28;45523;-96
2021/11/09 20:58:09;;;;;;;;;63.75;53.00;;;;;7.35;65.49;102205.19;4939390;28;45233;-94
2021/11/09 21:00:35;;;;;;;;;68.50;52.50;;;;;7.15;66.07;102160.06;4934404;28;46053;-95
2021/11/09 21:03:01;;;;;;;;;66.25;50.25;;;;;7.21;65.99;102176.25;4952306;28;45320;-95
2021/11/09 21:05:28;;;;;;;;;68.25;54.75;;;;;7.17;65.34;102174.16;4934825;28;45423;-96
2021/11/09 21:07:54;;;;;;;;;73.00;55.00;;;;;7.24;65.83;102191.28;4932635;28;47380;-95
2021/11/09 21:10:20;;;;;;;;;68.75;55.00;;;;;7.07;65.63;102163.72;4947428;28;45536;-95
2021/11/09 21:12:57;;;;;;;;;68.75;54.50;;;;;7.12;66.04;102176.41;4950964;28;45241;-96
2021/11/09 21:18:23;;;;;;;;;70.25;54.00;;;;;7.01;65.91;102162.44;4953535;28;45314;-96
2021/11/09 21:20:52;;;;;;;;;71.75;55.00;;;;;6.99;66.05;102168.31;4952719;28;45483;-96
2021/11/09 21:23:18;;;;;;;;;72.00;56.00;;;;;6.89;65.94;102157.13;4973808;28;45376;-95
2021/11/09 21:25:45;;;;;;;;;74.00;58.25;;;;;6.91;66.19;102166.00;4934188;28;45314;-96
2021/11/09 21:28:11;;;;;;;;;76.25;58.00;;;;;6.96;65.91;102174.19;4945414;28;46189;-95
2021/11/09 21:33:17;;;;;;;;;76.50;59.50;;;;;6.92;66.28;102173.06;4933084;28;45362;-95